createdAt,value
2023-01-26T00:01:17.701Z,102817.47
2023-01-26T00:03:45.067Z,102807.28
2023-01-26T00:06:14.396Z,102816.69
2023-01-26T00:08:43.116Z,102816.81
2023-01-26T00:11:12.432Z,102811.88
2023-01-26T00:13:39.555Z,102822.13
2023-01-26T00:16:13.293Z,102821.91
2023-01-26T00:18:40.826Z,102818.50
2023-01-26T00:21:09.267Z,102802.94
2023-01-26T00:23:36.021Z,102798.69
2023-01-26T00:26:03.035Z,102800.53
2023-01-26T00:28:29.523Z,102801.53
2023-01-26T00:31:03.660Z,102799.75
2023-01-26T00:33:30.826Z,102789.38
2023-01-26T00:35:57.405Z,102784.16
2023-01-26T00:38:24.383Z,102790.06
2023-01-26T00:40:50.883Z,102780.81
2023-01-26T00:43:17.469Z,102778.22
2023-01-26T00:45:44.202Z,102783.25
2023-01-26T00:48:10.710Z,102784.16
2023-01-26T00:50:37.163Z,102778.84
2023-01-26T00:53:03.743Z,102780.41
2023-01-26T00:55:32.845Z,102775.19
2023-01-26T00:58:00.466Z,102777.66
2023-01-26T01:00:27.533Z,102781.00
2023-01-26T01:02:56.324Z,102777.38
2023-01-26T01:05:28.226Z,102782.59
2023-01-26T01:07:54.903Z,102776.59
2023-01-26T01:10:21.794Z,102760.44
2023-01-26T01:12:48.265Z,102773.16
2023-01-26T01:15:15.158Z,102773.84
2023-01-26T01:17:41.853Z,102765.19
2023-01-26T01:20:10.633Z,102766.03
2023-01-26T01:22:37.586Z,102770.31
2023-01-26T01:25:05.156Z,102773.72
2023-01-26T01:27:31.665Z,102765.03
2023-01-26T01:29:58.148Z,102763.13
2023-01-26T01:32:24.663Z,102764.03
2023-01-26T01:34:51.148Z,102762.19
2023-01-26T01:37:17.911Z,102762.28
2023-01-26T01:39:44.480Z,102755.53
2023-01-26T01:42:11.086Z,102752.03
2023-01-26T01:44:38.742Z,102756.34
2023-01-26T01:47:26.816Z,102755.28
2023-01-26T01:49:55.066Z,102757.06
2023-01-26T01:52:26.406Z,102761.44
2023-01-26T01:55:02.164Z,102752.81
2023-01-26T01:57:44.888Z,102753.19
2023-01-26T02:00:17.372Z,102760.16
2023-01-26T02:03:06.256Z,102751.56
2023-01-26T02:05:35.676Z,102763.69
2023-01-26T02:08:03.469Z,102748.75
2023-01-26T02:10:30.729Z,102758.81
2023-01-26T02:13:00.652Z,102747.47
2023-01-26T02:15:27.495Z,102752.53
2023-01-26T02:17:54.868Z,102751.63
2023-01-26T02:20:36.388Z,102751.69
2023-01-26T02:23:21.684Z,102741.47
2023-01-26T02:25:54.130Z,102742.22
2023-01-26T02:28:27.750Z,102749.38
2023-01-26T02:30:55.990Z,102740.13
2023-01-26T02:33:28.955Z,102740.91
2023-01-26T02:35:55.510Z,102741.84
2023-01-26T02:38:23.448Z,102743.38
2023-01-26T02:40:55.297Z,102738.22
2023-01-26T02:43:25.559Z,102744.16
2023-01-26T02:45:52.553Z,102743.25
2023-01-26T02:48:39.391Z,102750.69
2023-01-26T02:51:06.802Z,102751.69
2023-01-26T02:53:33.611Z,102762.00
2023-01-26T02:56:00.116Z,102751.47
2023-01-26T02:58:26.662Z,102748.78
2023-01-26T03:00:53.250Z,102760.63
2023-01-26T03:03:23.487Z,102768.25
2023-01-26T03:05:50.289Z,102758.72
2023-01-26T03:08:17.358Z,102758.59
2023-01-26T03:10:44.141Z,102756.88
2023-01-26T03:13:10.624Z,102770.56
2023-01-26T03:15:43.365Z,102761.09
2023-01-26T03:18:35.558Z,102755.50
2023-01-26T03:21:23.597Z,102761.47
2023-01-26T03:24:08.799Z,102752.16
2023-01-26T03:26:53.828Z,102765.94
2023-01-26T03:29:22.159Z,102767.63
2023-01-26T03:31:48.932Z,102753.78
2023-01-26T03:34:15.691Z,102757.94
2023-01-26T03:36:42.238Z,102754.63
2023-01-26T03:39:09.152Z,102749.50
2023-01-26T03:41:54.320Z,102752.63
2023-01-26T03:44:39.068Z,102756.13
2023-01-26T03:47:24.272Z,102752.63
2023-01-26T03:50:09.515Z,102754.91
2023-01-26T03:52:54.996Z,102745.38
2023-01-26T03:55:40.088Z,102746.16
2023-01-26T03:58:08.548Z,102743.25
2023-01-26T04:00:35.016Z,102740.63
2023-01-26T04:03:19.886Z,102745.91
2023-01-26T04:06:15.890Z,102745.69
2023-01-26T04:08:43.210Z,102745.69
2023-01-26T04:11:09.671Z,102748.16
2023-01-26T04:13:54.790Z,102749.09
2023-01-26T04:16:39.937Z,102752.94
2023-01-26T04:19:25.039Z,102746.03
2023-01-26T04:21:51.521Z,102753.25
2023-01-26T04:24:22.286Z,102752.38
2023-01-26T04:26:48.999Z,102750.47
2023-01-26T04:29:16.857Z,102754.78
2023-01-26T04:31:43.724Z,102754.94
2023-01-26T04:34:14.924Z,102763.31
2023-01-26T04:36:42.578Z,102759.00
2023-01-26T04:39:09.844Z,102754.50
2023-01-26T04:41:36.554Z,102741.56
2023-01-26T04:44:03.081Z,102741.63
2023-01-26T04:46:29.735Z,102744.09
2023-01-26T04:48:56.282Z,102749.41
2023-01-26T04:51:23.015Z,102734.03
2023-01-26T04:53:50.288Z,102739.88
2023-01-26T04:56:22.643Z,102747.56
2023-01-26T04:58:49.322Z,102745.72
2023-01-26T05:01:15.897Z,102734.34
2023-01-26T05:03:42.366Z,102733.50
2023-01-26T05:06:08.847Z,102735.13
2023-01-26T05:08:37.177Z,102730.81
2023-01-26T05:11:04.158Z,102728.25
2023-01-26T05:13:30.901Z,102719.50
2023-01-26T05:15:57.401Z,102720.22
2023-01-26T05:18:23.880Z,102725.44
2023-01-26T05:20:50.337Z,102712.44
2023-01-26T05:23:16.786Z,102720.91
2023-01-26T05:25:43.363Z,102721.03
2023-01-26T05:28:09.847Z,102727.75
2023-01-26T05:30:36.328Z,102725.19
2023-01-26T05:33:04.823Z,102718.28
2023-01-26T05:35:31.441Z,102718.13
2023-01-26T05:37:58.315Z,102718.28
2023-01-26T05:40:26.117Z,102730.38
2023-01-26T05:42:53.672Z,102731.91
2023-01-26T05:45:21.191Z,102723.13
2023-01-26T05:47:51.469Z,102722.44
2023-01-26T05:50:18.046Z,102728.44
2023-01-26T05:52:46.595Z,102734.38
2023-01-26T05:55:13.246Z,102731.19
2023-01-26T05:57:39.723Z,102738.06
2023-01-26T06:00:07.166Z,102731.75
2023-01-26T06:02:33.672Z,102727.13
2023-01-26T06:05:00.238Z,102739.91
2023-01-26T06:07:26.690Z,102738.22
2023-01-26T06:09:53.544Z,102742.56
2023-01-26T06:12:23.259Z,102740.72
2023-01-26T06:14:49.931Z,102741.59
2023-01-26T06:17:18.363Z,102744.81
2023-01-26T06:19:45.251Z,102734.59
2023-01-26T06:22:13.333Z,102743.28
2023-01-26T06:24:39.873Z,102748.34
2023-01-26T06:27:14.095Z,102743.13
2023-01-26T06:29:41.542Z,102751.91
2023-01-26T06:32:10.071Z,102756.13
2023-01-26T06:34:36.535Z,102762.88
2023-01-26T06:37:03.060Z,102755.28
2023-01-26T06:39:29.585Z,102755.13
2023-01-26T06:41:56.690Z,102757.59
2023-01-26T06:44:23.187Z,102756.81
2023-01-26T06:46:49.661Z,102762.56
2023-01-26T06:49:16.784Z,102765.28
2023-01-26T06:51:47.549Z,102768.50
2023-01-26T06:54:15.246Z,102773.75
2023-01-26T06:56:42.144Z,102764.34
2023-01-26T06:59:10.732Z,102768.50
2023-01-26T07:01:41.340Z,102773.75
2023-01-26T07:04:07.806Z,102767.66
2023-01-26T07:06:34.251Z,102777.13
2023-01-26T07:09:00.799Z,102777.03
2023-01-26T07:11:30.116Z,102771.03
2023-01-26T07:13:57.169Z,102779.50
2023-01-26T07:16:23.692Z,102770.88
2023-01-26T07:18:50.236Z,102768.97
2023-01-26T07:21:18.859Z,102779.50
2023-01-26T07:23:46.365Z,102779.13
2023-01-26T07:26:13.086Z,102774.97
2023-01-26T07:28:40.392Z,102785.44
2023-01-26T07:31:08.048Z,102775.72
2023-01-26T07:33:35.383Z,102787.78
2023-01-26T07:36:02.466Z,102789.50
2023-01-26T07:38:29.207Z,102788.81
2023-01-26T07:40:56.351Z,102785.13
2023-01-26T07:43:22.866Z,102793.88
2023-01-26T07:45:52.086Z,102798.88
2023-01-26T07:48:22.907Z,102801.44
2023-01-26T07:50:49.921Z,102811.63
2023-01-26T07:53:22.753Z,102812.50
2023-01-26T07:55:49.618Z,102819.44
2023-01-26T07:58:16.185Z,102813.28
2023-01-26T08:00:42.650Z,102802.88
2023-01-26T08:03:09.186Z,102813.28
2023-01-26T08:05:37.073Z,102801.03
2023-01-26T08:08:04.252Z,102800.03
2023-01-26T08:10:31.951Z,102805.06
2023-01-26T08:13:01.916Z,102797.06
2023-01-26T08:15:29.325Z,102799.69
2023-01-26T08:17:56.173Z,102815.06
2023-01-26T08:20:23.218Z,102802.75
2023-01-26T08:22:49.776Z,102806.13
2023-01-26T08:25:16.377Z,102808.59
2023-01-26T08:27:42.834Z,102814.28
2023-01-26T08:30:10.330Z,102810.72
2023-01-26T08:32:37.817Z,102804.41
2023-01-26T08:35:04.600Z,102807.56
2023-01-26T08:37:31.136Z,102810.78
2023-01-26T08:39:57.637Z,102814.16
2023-01-26T08:42:25.262Z,102809.75
2023-01-26T08:44:52.551Z,102822.47
2023-01-26T08:47:19.035Z,102823.22
2023-01-26T08:49:45.499Z,102827.38
2023-01-26T08:52:11.960Z,102822.97
2023-01-26T08:54:38.471Z,102828.63
2023-01-26T08:57:04.982Z,102828.16
2023-01-26T08:59:31.462Z,102819.88
2023-01-26T09:01:58.053Z,102830.03
2023-01-26T09:04:24.562Z,102815.06
2023-01-26T09:06:51.023Z,102823.25
2023-01-26T09:09:17.467Z,102825.47
2023-01-26T09:11:44.735Z,102837.97
2023-01-26T09:14:11.198Z,102820.97
2023-01-26T09:16:37.699Z,102825.34
2023-01-26T09:19:05.137Z,102821.16
2023-01-26T09:21:31.597Z,102830.88
2023-01-26T09:23:58.242Z,102829.75
2023-01-26T09:26:24.759Z,102844.88
2023-01-26T09:28:54.158Z,102827.81
2023-01-26T09:31:20.863Z,102829.91
2023-01-26T09:33:49.122Z,102825.91
2023-01-26T09:36:16.177Z,102826.56
2023-01-26T09:38:42.693Z,102837.28
2023-01-26T09:41:39.533Z,102830.44
2023-01-26T09:44:10.757Z,102828.66
2023-01-26T09:46:49.035Z,102833.91
2023-01-26T09:49:20.821Z,102836.63
2023-01-26T09:52:14.711Z,102841.03
2023-01-26T09:54:51.649Z,102830.75
2023-01-26T09:57:23.305Z,102836.94
2023-01-26T09:59:58.800Z,102841.34
2023-01-26T10:03:02.653Z,102834.34
2023-01-26T10:05:31.991Z,102840.50
2023-01-26T10:07:59.028Z,102841.47
2023-01-26T10:10:32.324Z,102832.22
2023-01-26T10:12:59.774Z,102839.22
2023-01-26T10:15:41.571Z,102840.94
2023-01-26T10:18:16.403Z,102837.16
2023-01-26T10:20:47.645Z,102831.78
2023-01-26T10:23:23.332Z,102827.69
2023-01-26T10:25:51.771Z,102834.75
2023-01-26T10:28:30.445Z,102828.94
2023-01-26T10:30:57.630Z,102836.16
2023-01-26T10:33:30.487Z,102829.16
2023-01-26T10:35:57.178Z,102827.91
2023-01-26T10:38:43.849Z,102837.59
2023-01-26T10:41:19.125Z,102827.53
2023-01-26T10:44:18.562Z,102823.00
2023-01-26T10:46:45.147Z,102827.84
2023-01-26T10:49:11.609Z,102821.03
2023-01-26T10:51:40.667Z,102825.50
2023-01-26T10:54:17.270Z,102834.63
2023-01-26T10:56:56.034Z,102846.09
2023-01-26T10:59:35.002Z,102844.19
2023-01-26T11:02:19.518Z,102841.88
2023-01-26T11:05:18.386Z,102849.69
2023-01-26T11:07:48.460Z,102853.16
2023-01-26T11:10:38.744Z,102854.97
2023-01-26T11:13:20.312Z,102847.44
2023-01-26T11:16:20.235Z,102852.63
2023-01-26T11:18:52.551Z,102843.63
2023-01-26T11:21:27.533Z,102839.56
2023-01-26T11:24:21.760Z,102844.75
2023-01-26T11:27:12.296Z,102842.84
2023-01-26T11:29:56.895Z,102840.09
2023-01-26T11:33:03.541Z,102835.31
2023-01-26T11:36:16.358Z,102840.53
2023-01-26T11:39:00.629Z,102834.91
2023-01-26T11:41:27.082Z,102830.72
2023-01-26T11:44:03.252Z,102834.53
2023-01-26T11:46:48.157Z,102839.47
2023-01-26T11:49:39.407Z,102829.06
2023-01-26T11:52:14.721Z,102828.88
2023-01-26T11:55:33.808Z,102828.75
2023-01-26T11:58:19.083Z,102826.75
2023-01-26T12:00:52.209Z,102820.28
2023-01-26T12:03:47.549Z,102829.50
2023-01-26T12:06:28.748Z,102825.09
2023-01-26T12:09:02.468Z,102813.88
2023-01-26T12:11:38.331Z,102822.31
2023-01-26T12:14:13.703Z,102810.53
2023-01-26T12:16:43.206Z,102809.59
2023-01-26T12:19:21.573Z,102797.09
2023-01-26T12:21:50.234Z,102793.97
2023-01-26T12:25:05.013Z,102793.63
2023-01-26T12:27:31.640Z,102791.31
2023-01-26T12:30:29.552Z,102781.94
2023-01-26T12:32:56.283Z,102776.91
2023-01-26T12:35:48.679Z,102781.31
2023-01-26T12:38:59.872Z,102781.38
2023-01-26T12:41:29.165Z,102777.75
2023-01-26T12:44:22.382Z,102772.81
2023-01-26T12:47:02.226Z,102766.91
2023-01-26T12:49:34.908Z,102767.91
2023-01-26T12:52:08.220Z,102774.13
2023-01-26T12:54:45.541Z,102783.47
2023-01-26T12:57:17.843Z,102774.34
2023-01-26T12:59:47.708Z,102761.63
2023-01-26T13:02:24.209Z,102759.59
2023-01-26T13:04:51.082Z,102749.25
2023-01-26T13:07:38.200Z,102747.44
2023-01-26T13:10:10.010Z,102744.69
2023-01-26T13:12:49.016Z,102748.28
2023-01-26T13:15:18.228Z,102742.50
2023-01-26T13:17:51.945Z,102734.94
2023-01-26T13:20:43.796Z,102732.75
2023-01-26T13:23:43.874Z,102749.97
2023-01-26T13:26:42.499Z,102740.09
2023-01-26T13:29:33.159Z,102743.22
2023-01-26T13:32:21.850Z,102750.94
2023-01-26T13:34:54.427Z,102753.09
2023-01-26T13:37:54.931Z,102754.06
2023-01-26T13:40:30.410Z,102762.84
2023-01-26T13:43:24.605Z,102755.25
2023-01-26T13:46:04.953Z,102761.03
2023-01-26T13:48:51.432Z,102757.91
2023-01-26T13:51:25.866Z,102769.09
2023-01-26T13:54:04.529Z,102765.34
2023-01-26T13:56:31.025Z,102766.22
2023-01-26T13:59:24.740Z,102781.22
2023-01-26T14:01:56.330Z,102773.41
2023-01-26T14:04:27.023Z,102765.72
2023-01-26T14:07:07.614Z,102756.22
2023-01-26T14:09:45.074Z,102768.25
2023-01-26T14:12:25.444Z,102758.88
2023-01-26T14:15:01.723Z,102770.63
2023-01-26T14:17:31.243Z,102754.19
2023-01-26T14:20:00.080Z,102743.94
2023-01-26T14:22:27.340Z,102738.91
2023-01-26T14:24:54.196Z,102752.75
2023-01-26T14:27:31.416Z,102758.84
2023-01-26T14:29:58.615Z,102765.69
2023-01-26T14:32:29.365Z,102761.38
2023-01-26T14:34:58.604Z,102763.16
2023-01-26T14:37:26.165Z,102761.84
2023-01-26T14:40:22.199Z,102761.00
2023-01-26T14:42:52.284Z,102770.72
2023-01-26T14:45:29.181Z,102770.00
2023-01-26T14:47:59.559Z,102770.00
2023-01-26T14:50:29.719Z,102765.91
2023-01-26T14:52:56.613Z,102768.66
2023-01-26T14:55:28.130Z,102779.22
2023-01-26T14:57:56.659Z,102769.13
2023-01-26T15:00:31.120Z,102766.84
2023-01-26T15:03:00.407Z,102767.66
2023-01-26T15:05:39.393Z,102787.34
2023-01-26T15:08:19.991Z,102767.63
2023-01-26T15:11:16.490Z,102780.34
2023-01-26T15:13:52.056Z,102783.84
2023-01-26T15:16:23.805Z,102779.13
2023-01-26T15:19:01.922Z,102771.88
2023-01-26T15:21:39.551Z,102770.94
2023-01-26T15:24:12.287Z,102776.22
2023-01-26T15:26:38.932Z,102775.59
2023-01-26T15:29:16.389Z,102771.38
2023-01-26T15:31:43.158Z,102774.03
2023-01-26T15:34:32.154Z,102774.75
2023-01-26T15:36:59.538Z,102770.44
2023-01-26T15:39:26.202Z,102777.63
2023-01-26T15:42:15.671Z,102774.38
2023-01-26T15:44:42.346Z,102780.63
2023-01-26T15:47:11.232Z,102780.72
2023-01-26T15:49:38.816Z,102778.44
2023-01-26T15:52:15.552Z,102789.09
2023-01-26T15:54:42.244Z,102789.44
2023-01-26T15:57:11.316Z,102795.66
2023-01-26T15:59:38.835Z,102796.50
2023-01-26T16:02:15.356Z,102779.41
2023-01-26T16:04:42.409Z,102795.38
2023-01-26T16:07:17.639Z,102783.28
2023-01-26T16:09:44.532Z,102789.38
2023-01-26T16:12:25.831Z,102789.38
2023-01-26T16:14:57.265Z,102798.25
2023-01-26T16:17:23.727Z,102803.88
2023-01-26T16:19:50.265Z,102808.19
2023-01-26T16:22:16.823Z,102805.56
2023-01-26T16:24:43.784Z,102804.81
2023-01-26T16:27:10.299Z,102816.22
2023-01-26T16:29:36.776Z,102804.19
2023-01-26T16:32:19.959Z,102804.53
2023-01-26T16:34:46.464Z,102803.56
2023-01-26T16:37:12.909Z,102813.91
2023-01-26T16:39:39.431Z,102803.44
2023-01-26T16:42:05.937Z,102815.47
2023-01-26T16:44:33.972Z,102808.72
2023-01-26T16:47:00.440Z,102816.03
2023-01-26T16:49:29.428Z,102816.03
2023-01-26T16:51:55.926Z,102817.00
2023-01-26T16:54:22.372Z,102810.97
2023-01-26T16:56:48.841Z,102825.34
2023-01-26T16:59:15.317Z,102813.94
2023-01-26T17:01:42.047Z,102804.91
2023-01-26T17:04:11.001Z,102812.69
2023-01-26T17:06:37.476Z,102807.63
2023-01-26T17:09:04.878Z,102827.56
2023-01-26T17:11:31.461Z,102818.59
2023-01-26T17:13:59.187Z,102823.22
2023-01-26T17:16:32.990Z,102809.44
2023-01-26T17:18:59.591Z,102818.81
2023-01-26T17:21:29.205Z,102810.38
2023-01-26T17:23:58.834Z,102825.25
2023-01-26T17:26:25.459Z,102811.34
2023-01-26T17:28:55.661Z,102815.53
2023-01-26T17:31:23.489Z,102820.81
2023-01-26T17:33:50.377Z,102808.78
2023-01-26T17:36:18.961Z,102806.78
2023-01-26T17:38:46.347Z,102812.50
2023-01-26T17:41:12.894Z,102808.28
2023-01-26T17:43:39.448Z,102809.13
2023-01-26T17:46:10.936Z,102816.09
2023-01-26T17:48:37.650Z,102810.81
2023-01-26T17:51:16.691Z,102808.41
2023-01-26T17:53:44.963Z,102810.19
2023-01-26T17:56:14.752Z,102812.00
2023-01-26T17:58:41.654Z,102805.13
2023-01-26T18:01:09.935Z,102808.28
2023-01-26T18:03:40.908Z,102805.75
2023-01-26T18:06:07.536Z,102807.66
2023-01-26T18:08:34.134Z,102803.34
2023-01-26T18:11:02.649Z,102804.91
2023-01-26T18:13:30.332Z,102798.69
2023-01-26T18:15:56.831Z,102797.00
2023-01-26T18:18:28.238Z,102812.00
2023-01-26T18:20:55.339Z,102805.97
2023-01-26T18:23:23.468Z,102802.25
2023-01-26T18:25:50.806Z,102797.94
2023-01-26T18:28:17.483Z,102798.59
2023-01-26T18:30:44.026Z,102793.53
2023-01-26T18:33:10.659Z,102795.81
2023-01-26T18:35:37.121Z,102791.84
2023-01-26T18:38:03.640Z,102793.41
2023-01-26T18:40:30.917Z,102795.22
2023-01-26T18:42:57.409Z,102798.16
2023-01-26T18:45:23.927Z,102797.13
2023-01-26T18:47:50.831Z,102794.69
2023-01-26T18:50:17.569Z,102795.66
2023-01-26T18:52:44.043Z,102797.63
2023-01-26T18:55:11.500Z,102791.97
2023-01-26T18:57:38.469Z,102794.38
2023-01-26T19:00:08.109Z,102796.06
2023-01-26T19:02:39.450Z,102791.84
2023-01-26T19:05:07.481Z,102794.78
2023-01-26T19:07:35.074Z,102791.19
2023-01-26T19:10:01.824Z,102785.41
2023-01-26T19:12:28.357Z,102794.88
2023-01-26T19:14:54.890Z,102809.13
2023-01-26T19:17:21.435Z,102790.25
2023-01-26T19:19:47.911Z,102798.88
2023-01-26T19:22:14.372Z,102797.34
2023-01-26T19:24:42.918Z,102802.47
2023-01-26T19:27:09.556Z,102794.69
2023-01-26T19:29:36.120Z,102804.28
2023-01-26T19:32:02.849Z,102809.44
2023-01-26T19:34:31.931Z,102814.19
2023-01-26T19:36:58.503Z,102805.31
2023-01-26T19:39:25.122Z,102813.16
2023-01-26T19:41:51.701Z,102808.91
2023-01-26T19:44:18.331Z,102813.34
2023-01-26T19:46:44.788Z,102811.66
2023-01-26T19:49:12.983Z,102816.94
2023-01-26T19:51:39.499Z,102814.50
2023-01-26T19:54:06.045Z,102808.72
2023-01-26T19:56:36.231Z,102806.09
2023-01-26T19:59:06.093Z,102806.91
2023-01-26T20:01:33.175Z,102816.28
2023-01-26T20:04:02.236Z,102815.47
2023-01-26T20:06:30.854Z,102832.84
2023-01-26T20:08:58.149Z,102818.84
2023-01-26T20:11:27.228Z,102813.13
2023-01-26T20:14:04.422Z,102815.03
2023-01-26T20:16:31.971Z,102817.13
2023-01-26T20:18:59.226Z,102818.41
2023-01-26T20:21:26.849Z,102808.91
2023-01-26T20:23:55.620Z,102819.56
2023-01-26T20:26:24.664Z,102822.63
2023-01-26T20:28:51.608Z,102816.28
2023-01-26T20:31:21.124Z,102817.44
2023-01-26T20:33:49.086Z,102817.63
2023-01-26T20:36:18.805Z,102810.06
2023-01-26T20:38:46.154Z,102819.19
2023-01-26T20:41:16.156Z,102809.94
2023-01-26T20:43:58.148Z,102817.09
2023-01-26T20:46:26.655Z,102823.38
2023-01-26T20:48:55.701Z,102829.59
2023-01-26T20:51:26.334Z,102821.28
2023-01-26T20:53:52.831Z,102820.81
2023-01-26T20:56:21.102Z,102836.81
2023-01-26T20:58:47.899Z,102836.25
2023-01-26T21:01:16.394Z,102829.72
2023-01-26T21:03:43.317Z,102832.75
2023-01-26T21:06:12.460Z,102831.06
2023-01-26T21:08:39.226Z,102832.94
2023-01-26T21:11:08.714Z,102828.81
2023-01-26T21:13:35.819Z,102823.94
2023-01-26T21:16:03.497Z,102827.09
2023-01-26T21:18:30.598Z,102826.41
2023-01-26T21:20:58.979Z,102819.03
2023-01-26T21:23:25.529Z,102830.56
2023-01-26T21:26:06.292Z,102826.75
2023-01-26T21:28:32.818Z,102822.44
2023-01-26T21:31:18.590Z,102813.88
2023-01-26T21:33:47.691Z,102820.06
2023-01-26T21:36:17.178Z,102813.50
2023-01-26T21:38:45.663Z,102819.53
2023-01-26T21:41:36.919Z,102809.19
2023-01-26T21:44:11.671Z,102814.38
2023-01-26T21:46:38.626Z,102817.09
2023-01-26T21:49:06.272Z,102811.56
2023-01-26T21:51:51.309Z,102819.25
2023-01-26T21:54:17.756Z,102814.19
2023-01-26T21:56:44.591Z,102815.56
2023-01-26T21:59:14.756Z,102817.19
2023-01-26T22:01:42.641Z,102820.38
2023-01-26T22:04:13.499Z,102814.25
2023-01-26T22:06:40.212Z,102811.22
2023-01-26T22:09:10.315Z,102817.03
2023-01-26T22:11:37.109Z,102818.44
2023-01-26T22:14:03.872Z,102826.97
2023-01-26T22:16:30.896Z,102822.38
2023-01-26T22:18:57.630Z,102818.59
2023-01-26T22:21:24.918Z,102820.09
2023-01-26T22:23:52.764Z,102820.72
2023-01-26T22:26:20.952Z,102815.66
2023-01-26T22:28:55.431Z,102817.91
2023-01-26T22:31:26.180Z,102810.00
2023-01-26T22:33:53.954Z,102806.81
2023-01-26T22:36:21.354Z,102819.78
2023-01-26T22:38:49.017Z,102823.91
2023-01-26T22:41:21.326Z,102816.97
2023-01-26T22:43:49.402Z,102822.56
2023-01-26T22:46:18.037Z,102816.75
2023-01-26T22:48:44.715Z,102812.63
2023-01-26T22:51:19.832Z,102816.13
2023-01-26T22:53:49.050Z,102819.03
2023-01-26T22:56:16.171Z,102821.97
2023-01-26T22:58:57.100Z,102824.69
2023-01-26T23:01:25.259Z,102825.56
2023-01-26T23:03:53.991Z,102824.69
2023-01-26T23:06:21.286Z,102828.06
2023-01-26T23:08:47.929Z,102839.06
2023-01-26T23:11:20.680Z,102834.75
2023-01-26T23:13:49.765Z,102834.53
2023-01-26T23:16:16.619Z,102838.88
2023-01-26T23:18:43.939Z,102834.03
2023-01-26T23:21:11.418Z,102835.91
2023-01-26T23:23:39.483Z,102827.28
2023-01-26T23:26:06.371Z,102836.88
2023-01-26T23:28:34.934Z,102834.53
2023-01-26T23:31:02.182Z,102838.75
2023-01-26T23:33:31.368Z,102832.47
2023-01-26T23:35:58.181Z,102833.28
2023-01-26T23:38:26.622Z,102823.72
2023-01-26T23:40:53.716Z,102823.91
2023-01-26T23:43:20.770Z,102823.06
2023-01-26T23:45:48.908Z,102824.84
2023-01-26T23:48:15.608Z,102828.22
2023-01-26T23:50:42.671Z,102823.91
2023-01-26T23:53:09.440Z,102833.50
2023-01-26T23:55:39.073Z,102844.13
2023-01-26T23:58:05.517Z,102837.19
